sensor_id;sensor_type;location;lat;lon;timestamp;P1;durP1;ratioP1;P2;durP2;ratioP2
49217;SDS011;35045;51.194;7.268;2022-10-26T00:00:50;10.40;;;2.15;;
49217;SDS011;35045;51.194;7.268;2022-10-26T00:03:17;6.18;;;2.40;;
49217;SDS011;35045;51.194;7.268;2022-10-26T00:05:43;10.20;;;2.05;;
49217;SDS011;35045;51.194;7.268;2022-10-26T00:08:11;11.60;;;2.00;;
49217;SDS011;35045;51.194;7.268;2022-10-26T00:10:37;9.93;;;3.03;;
49217;SDS011;35045;51.194;7.268;2022-10-26T00:13:11;4.88;;;2.00;;
49217;SDS011;35045;51.194;7.268;2022-10-26T00:15:38;8.82;;;1.70;;
49217;SDS011;35045;51.194;7.268;2022-10-26T00:18:06;10.30;;;2.25;;
49217;SDS011;35045;51.194;7.268;2022-10-26T00:20:32;10.00;;;2.10;;
49217;SDS011;35045;51.194;7.268;2022-10-26T00:22:58;6.30;;;1.92;;
49217;SDS011;35045;51.194;7.268;2022-10-26T00:25:24;9.43;;;2.22;;
49217;SDS011;35045;51.194;7.268;2022-10-26T00:27:51;11.55;;;2.58;;
49217;SDS011;35045;51.194;7.268;2022-10-26T00:30:17;8.35;;;1.98;;
49217;SDS011;35045;51.194;7.268;2022-10-26T00:32:43;5.07;;;1.77;;
49217;SDS011;35045;51.194;7.268;2022-10-26T00:35:09;5.90;;;1.73;;
49217;SDS011;35045;51.194;7.268;2022-10-26T00:37:36;6.60;;;1.83;;
49217;SDS011;35045;51.194;7.268;2022-10-26T00:40:02;7.22;;;1.90;;
49217;SDS011;35045;51.194;7.268;2022-10-26T00:42:29;5.68;;;2.17;;
49217;SDS011;35045;51.194;7.268;2022-10-26T00:44:55;6.00;;;1.80;;
49217;SDS011;35045;51.194;7.268;2022-10-26T00:49:56;7.70;;;1.90;;
49217;SDS011;35045;51.194;7.268;2022-10-26T00:52:27;9.73;;;2.00;;
49217;SDS011;35045;51.194;7.268;2022-10-26T00:54:54;4.75;;;1.48;;
49217;SDS011;35045;51.194;7.268;2022-10-26T00:57:20;7.78;;;1.92;;
49217;SDS011;35045;51.194;7.268;2022-10-26T00:59:47;7.05;;;2.20;;
49217;SDS011;35045;51.194;7.268;2022-10-26T01:02:16;5.15;;;1.65;;
49217;SDS011;35045;51.194;7.268;2022-10-26T01:04:43;7.93;;;2.00;;
49217;SDS011;35045;51.194;7.268;2022-10-26T01:07:11;7.10;;;2.05;;
49217;SDS011;35045;51.194;7.268;2022-10-26T01:09:38;7.82;;;2.05;;
49217;SDS011;35045;51.194;7.268;2022-10-26T01:12:04;5.53;;;1.85;;
49217;SDS011;35045;51.194;7.268;2022-10-26T01:14:30;8.05;;;2.00;;
49217;SDS011;35045;51.194;7.268;2022-10-26T01:22:14;5.88;;;1.83;;
49217;SDS011;35045;51.194;7.268;2022-10-26T01:28:21;5.47;;;1.73;;
49217;SDS011;35045;51.194;7.268;2022-10-26T01:30:54;5.72;;;1.65;;
49217;SDS011;35045;51.194;7.268;2022-10-26T01:33:41;6.03;;;1.50;;
49217;SDS011;35045;51.194;7.268;2022-10-26T01:36:13;6.00;;;1.50;;
49217;SDS011;35045;51.194;7.268;2022-10-26T01:39:11;6.50;;;1.83;;
49217;SDS011;35045;51.194;7.268;2022-10-26T01:41:45;5.50;;;1.80;;
49217;SDS011;35045;51.194;7.268;2022-10-26T01:44:24;8.40;;;1.70;;
49217;SDS011;35045;51.194;7.268;2022-10-26T01:46:55;6.75;;;1.85;;
49217;SDS011;35045;51.194;7.268;2022-10-26T01:49:28;6.68;;;1.88;;
49217;SDS011;35045;51.194;7.268;2022-10-26T01:51:57;6.97;;;1.95;;
49217;SDS011;35045;51.194;7.268;2022-10-26T01:54:23;6.40;;;1.60;;
49217;SDS011;35045;51.194;7.268;2022-10-26T01:56:50;7.78;;;1.80;;
49217;SDS011;35045;51.194;7.268;2022-10-26T02:07:38;6.68;;;1.98;;
49217;SDS011;35045;51.194;7.268;2022-10-26T02:18:47;11.13;;;1.98;;
49217;SDS011;35045;51.194;7.268;2022-10-26T02:21:25;4.68;;;1.63;;
49217;SDS011;35045;51.194;7.268;2022-10-26T02:24:01;10.50;;;2.20;;
49217;SDS011;35045;51.194;7.268;2022-10-26T02:26:29;5.28;;;1.83;;
49217;SDS011;35045;51.194;7.268;2022-10-26T02:28:59;5.78;;;2.05;;
49217;SDS011;35045;51.194;7.268;2022-10-26T02:31:27;6.15;;;1.80;;
49217;SDS011;35045;51.194;7.268;2022-10-26T02:33:55;7.22;;;1.70;;
49217;SDS011;35045;51.194;7.268;2022-10-26T02:36:24;8.15;;;2.22;;
49217;SDS011;35045;51.194;7.268;2022-10-26T02:38:53;5.95;;;1.80;;
49217;SDS011;35045;51.194;7.268;2022-10-26T02:41:23;6.90;;;1.95;;
49217;SDS011;35045;51.194;7.268;2022-10-26T02:43:53;6.07;;;1.70;;
49217;SDS011;35045;51.194;7.268;2022-10-26T02:46:24;12.98;;;2.10;;
49217;SDS011;35045;51.194;7.268;2022-10-26T02:48:53;8.48;;;1.98;;
49217;SDS011;35045;51.194;7.268;2022-10-26T02:54:12;8.00;;;1.80;;
49217;SDS011;35045;51.194;7.268;2022-10-26T02:56:52;5.63;;;1.55;;
49217;SDS011;35045;51.194;7.268;2022-10-26T02:59:23;5.53;;;2.15;;
49217;SDS011;35045;51.194;7.268;2022-10-26T03:01:54;9.85;;;2.13;;
49217;SDS011;35045;51.194;7.268;2022-10-26T03:04:26;7.13;;;1.88;;
49217;SDS011;35045;51.194;7.268;2022-10-26T03:06:53;6.15;;;1.55;;
49217;SDS011;35045;51.194;7.268;2022-10-26T03:09:20;6.65;;;1.90;;
49217;SDS011;35045;51.194;7.268;2022-10-26T03:11:48;6.80;;;1.55;;
49217;SDS011;35045;51.194;7.268;2022-10-26T03:14:14;6.32;;;1.77;;
49217;SDS011;35045;51.194;7.268;2022-10-26T03:16:40;7.30;;;1.80;;
49217;SDS011;35045;51.194;7.268;2022-10-26T03:19:06;10.55;;;2.33;;
49217;SDS011;35045;51.194;7.268;2022-10-26T03:21:32;8.77;;;2.00;;
49217;SDS011;35045;51.194;7.268;2022-10-26T03:23:59;6.93;;;1.85;;
49217;SDS011;35045;51.194;7.268;2022-10-26T03:26:25;7.13;;;2.22;;
49217;SDS011;35045;51.194;7.268;2022-10-26T03:28:51;6.75;;;1.63;;
49217;SDS011;35045;51.194;7.268;2022-10-26T03:31:17;8.68;;;2.47;;
49217;SDS011;35045;51.194;7.268;2022-10-26T03:33:43;6.95;;;1.80;;
49217;SDS011;35045;51.194;7.268;2022-10-26T03:36:09;7.85;;;2.33;;
49217;SDS011;35045;51.194;7.268;2022-10-26T03:38:35;5.15;;;1.58;;
49217;SDS011;35045;51.194;7.268;2022-10-26T03:41:02;10.73;;;1.80;;
49217;SDS011;35045;51.194;7.268;2022-10-26T03:43:28;12.63;;;3.03;;
49217;SDS011;35045;51.194;7.268;2022-10-26T03:45:54;6.25;;;1.70;;
49217;SDS011;35045;51.194;7.268;2022-10-26T03:48:20;7.03;;;2.00;;
49217;SDS011;35045;51.194;7.268;2022-10-26T03:50:46;8.85;;;2.50;;
49217;SDS011;35045;51.194;7.268;2022-10-26T03:53:12;9.52;;;1.60;;
49217;SDS011;35045;51.194;7.268;2022-10-26T03:55:38;8.65;;;2.03;;
49217;SDS011;35045;51.194;7.268;2022-10-26T03:58:04;11.57;;;2.05;;
49217;SDS011;35045;51.194;7.268;2022-10-26T04:00:30;8.65;;;1.90;;
49217;SDS011;35045;51.194;7.268;2022-10-26T04:02:57;7.20;;;2.00;;
49217;SDS011;35045;51.194;7.268;2022-10-26T04:05:25;7.07;;;2.15;;
49217;SDS011;35045;51.194;7.268;2022-10-26T04:07:53;7.43;;;1.70;;
49217;SDS011;35045;51.194;7.268;2022-10-26T04:10:20;8.80;;;2.00;;
49217;SDS011;35045;51.194;7.268;2022-10-26T04:12:46;6.47;;;2.13;;
49217;SDS011;35045;51.194;7.268;2022-10-26T04:15:12;6.35;;;1.65;;
49217;SDS011;35045;51.194;7.268;2022-10-26T04:17:39;8.80;;;2.00;;
49217;SDS011;35045;51.194;7.268;2022-10-26T04:20:05;6.45;;;2.15;;
49217;SDS011;35045;51.194;7.268;2022-10-26T04:22:32;5.72;;;1.58;;
49217;SDS011;35045;51.194;7.268;2022-10-26T04:24:58;6.35;;;1.83;;
49217;SDS011;35045;51.194;7.268;2022-10-26T04:27:24;6.80;;;1.80;;
49217;SDS011;35045;51.194;7.268;2022-10-26T04:29:50;5.93;;;1.35;;
49217;SDS011;35045;51.194;7.268;2022-10-26T04:32:16;7.90;;;2.03;;
49217;SDS011;35045;51.194;7.268;2022-10-26T04:34:42;8.85;;;2.08;;
49217;SDS011;35045;51.194;7.268;2022-10-26T04:37:08;7.75;;;1.75;;
49217;SDS011;35045;51.194;7.268;2022-10-26T04:39:35;7.80;;;1.70;;
49217;SDS011;35045;51.194;7.268;2022-10-26T04:42:01;5.80;;;2.10;;
49217;SDS011;35045;51.194;7.268;2022-10-26T04:44:27;10.48;;;2.10;;
49217;SDS011;35045;51.194;7.268;2022-10-26T04:46:53;8.73;;;1.55;;
49217;SDS011;35045;51.194;7.268;2022-10-26T04:49:19;6.72;;;1.55;;
49217;SDS011;35045;51.194;7.268;2022-10-26T04:51:45;6.60;;;1.80;;
49217;SDS011;35045;51.194;7.268;2022-10-26T04:54:12;8.50;;;2.05;;
49217;SDS011;35045;51.194;7.268;2022-10-26T04:56:38;4.72;;;1.50;;
49217;SDS011;35045;51.194;7.268;2022-10-26T04:59:04;8.05;;;1.70;;
49217;SDS011;35045;51.194;7.268;2022-10-26T05:01:30;6.75;;;1.60;;
49217;SDS011;35045;51.194;7.268;2022-10-26T05:03:57;4.25;;;1.40;;
49217;SDS011;35045;51.194;7.268;2022-10-26T05:06:23;7.32;;;1.40;;
49217;SDS011;35045;51.194;7.268;2022-10-26T05:08:49;7.18;;;1.52;;
49217;SDS011;35045;51.194;7.268;2022-10-26T05:11:15;7.28;;;1.48;;
49217;SDS011;35045;51.194;7.268;2022-10-26T05:13:41;7.57;;;1.60;;
49217;SDS011;35045;51.194;7.268;2022-10-26T05:16:07;7.78;;;1.60;;
49217;SDS011;35045;51.194;7.268;2022-10-26T05:18:33;4.18;;;1.33;;
49217;SDS011;35045;51.194;7.268;2022-10-26T05:21:00;6.10;;;1.73;;
49217;SDS011;35045;51.194;7.268;2022-10-26T05:23:26;5.63;;;1.40;;
49217;SDS011;35045;51.194;7.268;2022-10-26T05:25:53;7.55;;;1.70;;
49217;SDS011;35045;51.194;7.268;2022-10-26T05:28:20;5.75;;;1.33;;
49217;SDS011;35045;51.194;7.268;2022-10-26T05:30:46;7.00;;;1.52;;
49217;SDS011;35045;51.194;7.268;2022-10-26T05:33:13;6.47;;;1.40;;
49217;SDS011;35045;51.194;7.268;2022-10-26T05:35:39;6.18;;;1.58;;
49217;SDS011;35045;51.194;7.268;2022-10-26T05:38:06;5.65;;;1.50;;
49217;SDS011;35045;51.194;7.268;2022-10-26T05:40:37;4.15;;;1.50;;
49217;SDS011;35045;51.194;7.268;2022-10-26T05:43:03;7.03;;;1.70;;
49217;SDS011;35045;51.194;7.268;2022-10-26T05:45:29;6.00;;;1.80;;
49217;SDS011;35045;51.194;7.268;2022-10-26T05:47:56;6.13;;;2.13;;
49217;SDS011;35045;51.194;7.268;2022-10-26T05:50:23;4.38;;;1.55;;
49217;SDS011;35045;51.194;7.268;2022-10-26T05:52:49;6.60;;;1.73;;
49217;SDS011;35045;51.194;7.268;2022-10-26T05:55:16;15.57;;;2.00;;
49217;SDS011;35045;51.194;7.268;2022-10-26T05:57:43;4.93;;;1.33;;
49217;SDS011;35045;51.194;7.268;2022-10-26T06:00:14;8.63;;;1.92;;
49217;SDS011;35045;51.194;7.268;2022-10-26T06:05:32;5.72;;;1.63;;
49217;SDS011;35045;51.194;7.268;2022-10-26T06:08:09;9.30;;;1.58;;
49217;SDS011;35045;51.194;7.268;2022-10-26T06:10:36;7.45;;;1.25;;
49217;SDS011;35045;51.194;7.268;2022-10-26T06:13:03;3.60;;;1.13;;
49217;SDS011;35045;51.194;7.268;2022-10-26T06:15:29;6.22;;;1.52;;
49217;SDS011;35045;51.194;7.268;2022-10-26T06:20:43;5.28;;;1.40;;
49217;SDS011;35045;51.194;7.268;2022-10-26T06:29:08;8.35;;;1.77;;
49217;SDS011;35045;51.194;7.268;2022-10-26T06:32:10;5.78;;;1.35;;
49217;SDS011;35045;51.194;7.268;2022-10-26T06:34:36;7.15;;;1.38;;
49217;SDS011;35045;51.194;7.268;2022-10-26T06:37:07;5.78;;;1.38;;
49217;SDS011;35045;51.194;7.268;2022-10-26T06:39:35;7.25;;;1.48;;
49217;SDS011;35045;51.194;7.268;2022-10-26T06:42:04;5.60;;;1.77;;
49217;SDS011;35045;51.194;7.268;2022-10-26T06:44:31;4.18;;;1.30;;
49217;SDS011;35045;51.194;7.268;2022-10-26T06:50:26;6.95;;;1.35;;
49217;SDS011;35045;51.194;7.268;2022-10-26T06:55:54;6.93;;;1.65;;
49217;SDS011;35045;51.194;7.268;2022-10-26T06:58:23;5.40;;;1.42;;
49217;SDS011;35045;51.194;7.268;2022-10-26T07:00:53;4.30;;;1.23;;
49217;SDS011;35045;51.194;7.268;2022-10-26T07:03:21;6.20;;;1.40;;
49217;SDS011;35045;51.194;7.268;2022-10-26T07:05:47;5.47;;;1.90;;
49217;SDS011;35045;51.194;7.268;2022-10-26T07:08:14;5.03;;;1.40;;
49217;SDS011;35045;51.194;7.268;2022-10-26T07:10:40;6.22;;;1.13;;
49217;SDS011;35045;51.194;7.268;2022-10-26T07:13:07;6.03;;;1.33;;
49217;SDS011;35045;51.194;7.268;2022-10-26T07:15:35;4.70;;;1.50;;
49217;SDS011;35045;51.194;7.268;2022-10-26T07:18:03;4.05;;;1.60;;
49217;SDS011;35045;51.194;7.268;2022-10-26T07:20:31;4.97;;;1.30;;
49217;SDS011;35045;51.194;7.268;2022-10-26T07:23:02;6.93;;;1.70;;
49217;SDS011;35045;51.194;7.268;2022-10-26T07:25:31;5.63;;;1.25;;
49217;SDS011;35045;51.194;7.268;2022-10-26T07:27:58;5.05;;;1.25;;
49217;SDS011;35045;51.194;7.268;2022-10-26T07:30:25;5.50;;;1.20;;
49217;SDS011;35045;51.194;7.268;2022-10-26T07:33:05;5.95;;;1.50;;
49217;SDS011;35045;51.194;7.268;2022-10-26T07:35:36;11.13;;;1.45;;
49217;SDS011;35045;51.194;7.268;2022-10-26T07:38:03;5.65;;;1.10;;
49217;SDS011;35045;51.194;7.268;2022-10-26T07:40:29;5.05;;;1.40;;
49217;SDS011;35045;51.194;7.268;2022-10-26T07:42:56;3.90;;;1.25;;
49217;SDS011;35045;51.194;7.268;2022-10-26T07:45:23;5.05;;;1.25;;
49217;SDS011;35045;51.194;7.268;2022-10-26T07:47:50;7.88;;;1.65;;
49217;SDS011;35045;51.194;7.268;2022-10-26T07:50:16;6.80;;;1.48;;
49217;SDS011;35045;51.194;7.268;2022-10-26T07:52:42;5.22;;;1.60;;
49217;SDS011;35045;51.194;7.268;2022-10-26T07:55:09;4.95;;;1.40;;
49217;SDS011;35045;51.194;7.268;2022-10-26T07:57:36;5.75;;;1.50;;
49217;SDS011;35045;51.194;7.268;2022-10-26T08:00:04;7.32;;;1.45;;
49217;SDS011;35045;51.194;7.268;2022-10-26T08:02:31;5.63;;;1.35;;
49217;SDS011;35045;51.194;7.268;2022-10-26T08:04:58;6.75;;;1.77;;
49217;SDS011;35045;51.194;7.268;2022-10-26T08:07:24;5.13;;;1.52;;
49217;SDS011;35045;51.194;7.268;2022-10-26T08:09:51;11.50;;;1.40;;
49217;SDS011;35045;51.194;7.268;2022-10-26T08:12:17;6.75;;;1.60;;
49217;SDS011;35045;51.194;7.268;2022-10-26T08:14:43;6.82;;;1.80;;
49217;SDS011;35045;51.194;7.268;2022-10-26T08:17:10;4.65;;;1.45;;
49217;SDS011;35045;51.194;7.268;2022-10-26T08:19:36;4.80;;;1.60;;
49217;SDS011;35045;51.194;7.268;2022-10-26T08:22:02;15.85;;;1.77;;
49217;SDS011;35045;51.194;7.268;2022-10-26T08:24:28;5.63;;;1.70;;
49217;SDS011;35045;51.194;7.268;2022-10-26T08:26:55;5.53;;;1.50;;
49217;SDS011;35045;51.194;7.268;2022-10-26T08:29:21;7.60;;;1.55;;
49217;SDS011;35045;51.194;7.268;2022-10-26T08:31:47;6.70;;;1.77;;
49217;SDS011;35045;51.194;7.268;2022-10-26T08:34:13;6.43;;;2.00;;
49217;SDS011;35045;51.194;7.268;2022-10-26T08:36:39;6.28;;;1.63;;
49217;SDS011;35045;51.194;7.268;2022-10-26T08:39:05;5.22;;;1.35;;
49217;SDS011;35045;51.194;7.268;2022-10-26T08:41:41;7.97;;;1.83;;
49217;SDS011;35045;51.194;7.268;2022-10-26T08:44:18;5.43;;;1.67;;
49217;SDS011;35045;51.194;7.268;2022-10-26T08:46:54;9.45;;;1.80;;
49217;SDS011;35045;51.194;7.268;2022-10-26T08:49:28;8.05;;;1.58;;
49217;SDS011;35045;51.194;7.268;2022-10-26T08:51:58;6.30;;;1.60;;
49217;SDS011;35045;51.194;7.268;2022-10-26T08:57:10;7.38;;;1.73;;
49217;SDS011;35045;51.194;7.268;2022-10-26T08:59:48;5.55;;;1.60;;
49217;SDS011;35045;51.194;7.268;2022-10-26T09:02:20;5.78;;;1.70;;
49217;SDS011;35045;51.194;7.268;2022-10-26T09:04:46;6.60;;;1.67;;
49217;SDS011;35045;51.194;7.268;2022-10-26T09:18:12;4.88;;;1.70;;
49217;SDS011;35045;51.194;7.268;2022-10-26T09:26:32;6.47;;;1.73;;
49217;SDS011;35045;51.194;7.268;2022-10-26T09:29:11;7.65;;;2.30;;
49217;SDS011;35045;51.194;7.268;2022-10-26T09:31:42;8.15;;;1.85;;
49217;SDS011;35045;51.194;7.268;2022-10-26T09:34:17;6.55;;;1.90;;
49217;SDS011;35045;51.194;7.268;2022-10-26T09:36:53;5.55;;;1.73;;
49217;SDS011;35045;51.194;7.268;2022-10-26T09:39:40;10.02;;;2.47;;
49217;SDS011;35045;51.194;7.268;2022-10-26T09:42:18;6.55;;;1.90;;
49217;SDS011;35045;51.194;7.268;2022-10-26T09:44:50;7.32;;;2.17;;
49217;SDS011;35045;51.194;7.268;2022-10-26T09:50:01;5.93;;;1.95;;
49217;SDS011;35045;51.194;7.268;2022-10-26T09:55:30;8.63;;;1.85;;
49217;SDS011;35045;51.194;7.268;2022-10-26T09:57:59;7.88;;;1.80;;
49217;SDS011;35045;51.194;7.268;2022-10-26T10:00:28;5.97;;;2.00;;
49217;SDS011;35045;51.194;7.268;2022-10-26T10:02:55;6.35;;;1.95;;
49217;SDS011;35045;51.194;7.268;2022-10-26T10:08:10;6.35;;;2.25;;
49217;SDS011;35045;51.194;7.268;2022-10-26T10:11:04;7.38;;;2.08;;
49217;SDS011;35045;51.194;7.268;2022-10-26T10:13:37;7.38;;;1.92;;
49217;SDS011;35045;51.194;7.268;2022-10-26T10:16:05;6.20;;;1.90;;
49217;SDS011;35045;51.194;7.268;2022-10-26T10:18:36;6.75;;;2.10;;
49217;SDS011;35045;51.194;7.268;2022-10-26T10:21:03;7.45;;;1.83;;
49217;SDS011;35045;51.194;7.268;2022-10-26T10:23:32;7.22;;;1.80;;
49217;SDS011;35045;51.194;7.268;2022-10-26T10:26:09;5.15;;;1.75;;
49217;SDS011;35045;51.194;7.268;2022-10-26T10:28:35;7.50;;;2.55;;
49217;SDS011;35045;51.194;7.268;2022-10-26T10:31:03;6.95;;;1.67;;
49217;SDS011;35045;51.194;7.268;2022-10-26T10:33:35;7.07;;;2.38;;
49217;SDS011;35045;51.194;7.268;2022-10-26T10:36:05;7.65;;;2.10;;
49217;SDS011;35045;51.194;7.268;2022-10-26T10:38:38;7.50;;;1.98;;
49217;SDS011;35045;51.194;7.268;2022-10-26T10:41:13;6.05;;;1.80;;
49217;SDS011;35045;51.194;7.268;2022-10-26T10:43:46;8.77;;;2.00;;
49217;SDS011;35045;51.194;7.268;2022-10-26T10:46:22;10.73;;;2.30;;
49217;SDS011;35045;51.194;7.268;2022-10-26T10:48:54;8.52;;;2.20;;
49217;SDS011;35045;51.194;7.268;2022-10-26T10:51:27;6.93;;;1.88;;
49217;SDS011;35045;51.194;7.268;2022-10-26T10:53:59;6.45;;;2.20;;
49217;SDS011;35045;51.194;7.268;2022-10-26T10:56:41;8.65;;;1.95;;
49217;SDS011;35045;51.194;7.268;2022-10-26T11:07:06;7.07;;;1.80;;
49217;SDS011;35045;51.194;7.268;2022-10-26T11:09:36;9.00;;;2.42;;
49217;SDS011;35045;51.194;7.268;2022-10-26T11:12:08;6.65;;;2.20;;
49217;SDS011;35045;51.194;7.268;2022-10-26T11:14:40;5.57;;;2.00;;
49217;SDS011;35045;51.194;7.268;2022-10-26T11:17:17;7.50;;;2.20;;
49217;SDS011;35045;51.194;7.268;2022-10-26T11:20:12;7.68;;;1.73;;
49217;SDS011;35045;51.194;7.268;2022-10-26T11:22:40;10.48;;;2.42;;
49217;SDS011;35045;51.194;7.268;2022-10-26T11:25:58;8.73;;;2.28;;
49217;SDS011;35045;51.194;7.268;2022-10-26T11:31:05;8.95;;;2.15;;
49217;SDS011;35045;51.194;7.268;2022-10-26T11:36:33;11.25;;;2.60;;
49217;SDS011;35045;51.194;7.268;2022-10-26T11:39:21;6.78;;;2.10;;
49217;SDS011;35045;51.194;7.268;2022-10-26T11:41:55;5.75;;;2.10;;
49217;SDS011;35045;51.194;7.268;2022-10-26T11:47:47;8.77;;;2.40;;
49217;SDS011;35045;51.194;7.268;2022-10-26T11:52:51;7.43;;;2.08;;
49217;SDS011;35045;51.194;7.268;2022-10-26T11:55:27;9.15;;;2.30;;
49217;SDS011;35045;51.194;7.268;2022-10-26T11:57:53;9.80;;;2.22;;
49217;SDS011;35045;51.194;7.268;2022-10-26T12:00:20;11.68;;;2.42;;
49217;SDS011;35045;51.194;7.268;2022-10-26T12:05:49;7.63;;;2.13;;
49217;SDS011;35045;51.194;7.268;2022-10-26T12:08:26;7.50;;;2.45;;
49217;SDS011;35045;51.194;7.268;2022-10-26T12:14:01;8.48;;;2.28;;
49217;SDS011;35045;51.194;7.268;2022-10-26T12:19:15;8.32;;;2.08;;
49217;SDS011;35045;51.194;7.268;2022-10-26T12:21:49;5.85;;;1.95;;
49217;SDS011;35045;51.194;7.268;2022-10-26T12:29:28;6.93;;;1.98;;
49217;SDS011;35045;51.194;7.268;2022-10-26T12:32:49;5.75;;;1.80;;
49217;SDS011;35045;51.194;7.268;2022-10-26T12:34:57;5.35;;;1.70;;
49217;SDS011;35045;51.194;7.268;2022-10-26T12:37:35;7.05;;;2.05;;
49217;SDS011;35045;51.194;7.268;2022-10-26T12:45:41;6.03;;;1.80;;
49217;SDS011;35045;51.194;7.268;2022-10-26T12:48:21;7.68;;;1.70;;
49217;SDS011;35045;51.194;7.268;2022-10-26T12:54:08;7.47;;;1.75;;
49217;SDS011;35045;51.194;7.268;2022-10-26T12:57:43;5.65;;;1.80;;
49217;SDS011;35045;51.194;7.268;2022-10-26T12:59:52;7.07;;;2.00;;
49217;SDS011;35045;51.194;7.268;2022-10-26T13:02:44;8.57;;;2.22;;
49217;SDS011;35045;51.194;7.268;2022-10-26T13:05:37;8.27;;;1.65;;
49217;SDS011;35045;51.194;7.268;2022-10-26T13:08:22;6.28;;;1.92;;
49217;SDS011;35045;51.194;7.268;2022-10-26T13:11:02;5.82;;;1.88;;
49217;SDS011;35045;51.194;7.268;2022-10-26T13:13:31;7.57;;;2.20;;
49217;SDS011;35045;51.194;7.268;2022-10-26T13:16:01;8.77;;;2.17;;
49217;SDS011;35045;51.194;7.268;2022-10-26T13:18:28;6.47;;;1.92;;
49217;SDS011;35045;51.194;7.268;2022-10-26T13:23:30;5.68;;;1.50;;
49217;SDS011;35045;51.194;7.268;2022-10-26T13:26:09;6.20;;;1.55;;
49217;SDS011;35045;51.194;7.268;2022-10-26T13:31:09;6.60;;;1.55;;
49217;SDS011;35045;51.194;7.268;2022-10-26T13:33:41;6.10;;;1.48;;
49217;SDS011;35045;51.194;7.268;2022-10-26T13:36:25;5.82;;;1.50;;
49217;SDS011;35045;51.194;7.268;2022-10-26T13:39:12;4.82;;;1.38;;
49217;SDS011;35045;51.194;7.268;2022-10-26T13:41:46;6.32;;;1.50;;
49217;SDS011;35045;51.194;7.268;2022-10-26T13:44:16;4.80;;;1.40;;
49217;SDS011;35045;51.194;7.268;2022-10-26T13:46:51;7.70;;;1.40;;
49217;SDS011;35045;51.194;7.268;2022-10-26T13:49:23;5.07;;;1.20;;
49217;SDS011;35045;51.194;7.268;2022-10-26T13:51:59;5.47;;;1.52;;
49217;SDS011;35045;51.194;7.268;2022-10-26T13:56:58;4.50;;;1.65;;
49217;SDS011;35045;51.194;7.268;2022-10-26T14:02:05;5.30;;;1.30;;
49217;SDS011;35045;51.194;7.268;2022-10-26T14:04:33;5.55;;;1.40;;
49217;SDS011;35045;51.194;7.268;2022-10-26T14:06:59;5.40;;;1.95;;
49217;SDS011;35045;51.194;7.268;2022-10-26T14:09:25;5.70;;;1.52;;
49217;SDS011;35045;51.194;7.268;2022-10-26T14:11:54;4.93;;;1.33;;
49217;SDS011;35045;51.194;7.268;2022-10-26T14:14:24;6.57;;;1.33;;
49217;SDS011;35045;51.194;7.268;2022-10-26T14:16:52;5.18;;;1.38;;
49217;SDS011;35045;51.194;7.268;2022-10-26T14:21:56;3.58;;;1.15;;
49217;SDS011;35045;51.194;7.268;2022-10-26T14:24:29;4.45;;;1.30;;
49217;SDS011;35045;51.194;7.268;2022-10-26T14:27:17;5.88;;;1.33;;
49217;SDS011;35045;51.194;7.268;2022-10-26T14:29:44;8.30;;;2.90;;
49217;SDS011;35045;51.194;7.268;2022-10-26T14:32:31;6.28;;;1.77;;
49217;SDS011;35045;51.194;7.268;2022-10-26T14:34:58;5.18;;;1.17;;
49217;SDS011;35045;51.194;7.268;2022-10-26T14:37:27;5.15;;;1.20;;
49217;SDS011;35045;51.194;7.268;2022-10-26T14:40:03;6.80;;;1.30;;
49217;SDS011;35045;51.194;7.268;2022-10-26T14:42:31;4.20;;;1.05;;
49217;SDS011;35045;51.194;7.268;2022-10-26T14:45:04;5.30;;;1.30;;
49217;SDS011;35045;51.194;7.268;2022-10-26T14:47:32;6.63;;;1.25;;
49217;SDS011;35045;51.194;7.268;2022-10-26T14:50:00;5.72;;;1.25;;
49217;SDS011;35045;51.194;7.268;2022-10-26T14:52:29;5.75;;;1.30;;
49217;SDS011;35045;51.194;7.268;2022-10-26T14:54:58;4.20;;;1.25;;
49217;SDS011;35045;51.194;7.268;2022-10-26T14:57:36;4.45;;;1.20;;
49217;SDS011;35045;51.194;7.268;2022-10-26T15:00:11;3.53;;;1.10;;
49217;SDS011;35045;51.194;7.268;2022-10-26T15:02:38;6.18;;;1.10;;
49217;SDS011;35045;51.194;7.268;2022-10-26T15:07:52;2.25;;;0.75;;
49217;SDS011;35045;51.194;7.268;2022-10-26T15:10:52;4.13;;;1.13;;
49217;SDS011;35045;51.194;7.268;2022-10-26T15:13:19;6.13;;;1.60;;
49217;SDS011;35045;51.194;7.268;2022-10-26T15:15:49;5.15;;;1.27;;
49217;SDS011;35045;51.194;7.268;2022-10-26T15:18:23;6.65;;;1.77;;
49217;SDS011;35045;51.194;7.268;2022-10-26T15:20:52;4.35;;;1.50;;
49217;SDS011;35045;51.194;7.268;2022-10-26T15:23:19;3.90;;;0.93;;
49217;SDS011;35045;51.194;7.268;2022-10-26T15:25:54;4.18;;;0.80;;
49217;SDS011;35045;51.194;7.268;2022-10-26T15:28:23;5.03;;;1.27;;
49217;SDS011;35045;51.194;7.268;2022-10-26T15:30:58;4.30;;;1.10;;
49217;SDS011;35045;51.194;7.268;2022-10-26T15:33:32;4.75;;;1.35;;
49217;SDS011;35045;51.194;7.268;2022-10-26T15:38:44;4.35;;;1.23;;
49217;SDS011;35045;51.194;7.268;2022-10-26T15:41:25;4.88;;;1.55;;
49217;SDS011;35045;51.194;7.268;2022-10-26T15:43:54;7.72;;;3.60;;
49217;SDS011;35045;51.194;7.268;2022-10-26T15:46:23;8.77;;;2.72;;
49217;SDS011;35045;51.194;7.268;2022-10-26T15:48:54;12.23;;;7.22;;
49217;SDS011;35045;51.194;7.268;2022-10-26T15:51:22;8.15;;;2.50;;
49217;SDS011;35045;51.194;7.268;2022-10-26T15:53:48;8.65;;;3.13;;
49217;SDS011;35045;51.194;7.268;2022-10-26T15:56:16;10.38;;;5.00;;
49217;SDS011;35045;51.194;7.268;2022-10-26T15:58:44;12.35;;;4.75;;
49217;SDS011;35045;51.194;7.268;2022-10-26T16:01:17;9.32;;;4.60;;
49217;SDS011;35045;51.194;7.268;2022-10-26T16:03:45;15.00;;;8.43;;
49217;SDS011;35045;51.194;7.268;2022-10-26T16:06:27;44.67;;;25.45;;
49217;SDS011;35045;51.194;7.268;2022-10-26T16:08:57;31.75;;;20.98;;
49217;SDS011;35045;51.194;7.268;2022-10-26T16:11:26;28.48;;;19.15;;
49217;SDS011;35045;51.194;7.268;2022-10-26T16:13:53;21.88;;;10.85;;
49217;SDS011;35045;51.194;7.268;2022-10-26T16:16:19;35.50;;;17.77;;
49217;SDS011;35045;51.194;7.268;2022-10-26T16:18:52;14.63;;;8.05;;
49217;SDS011;35045;51.194;7.268;2022-10-26T16:21:23;19.75;;;9.57;;
49217;SDS011;35045;51.194;7.268;2022-10-26T16:23:51;19.70;;;8.25;;
49217;SDS011;35045;51.194;7.268;2022-10-26T16:26:19;9.48;;;2.55;;
49217;SDS011;35045;51.194;7.268;2022-10-26T16:28:46;7.03;;;2.53;;
49217;SDS011;35045;51.194;7.268;2022-10-26T16:31:13;8.27;;;3.28;;
49217;SDS011;35045;51.194;7.268;2022-10-26T16:33:41;7.88;;;2.42;;
49217;SDS011;35045;51.194;7.268;2022-10-26T16:36:08;6.07;;;1.75;;
49217;SDS011;35045;51.194;7.268;2022-10-26T16:38:36;8.02;;;2.28;;
49217;SDS011;35045;51.194;7.268;2022-10-26T16:41:02;7.43;;;2.58;;
49217;SDS011;35045;51.194;7.268;2022-10-26T16:43:30;7.13;;;1.92;;
49217;SDS011;35045;51.194;7.268;2022-10-26T16:45:58;6.57;;;2.13;;
49217;SDS011;35045;51.194;7.268;2022-10-26T16:48:25;7.68;;;1.90;;
49217;SDS011;35045;51.194;7.268;2022-10-26T16:50:51;6.82;;;2.80;;
49217;SDS011;35045;51.194;7.268;2022-10-26T16:53:17;6.75;;;2.28;;
49217;SDS011;35045;51.194;7.268;2022-10-26T16:55:44;6.22;;;1.80;;
49217;SDS011;35045;51.194;7.268;2022-10-26T16:58:10;6.88;;;2.10;;
49217;SDS011;35045;51.194;7.268;2022-10-26T17:00:36;7.78;;;2.10;;
49217;SDS011;35045;51.194;7.268;2022-10-26T17:03:02;7.95;;;2.38;;
49217;SDS011;35045;51.194;7.268;2022-10-26T17:05:29;8.38;;;2.65;;
49217;SDS011;35045;51.194;7.268;2022-10-26T17:07:55;6.72;;;2.38;;
49217;SDS011;35045;51.194;7.268;2022-10-26T17:10:21;8.27;;;3.38;;
49217;SDS011;35045;51.194;7.268;2022-10-26T17:12:47;8.38;;;2.83;;
49217;SDS011;35045;51.194;7.268;2022-10-26T17:15:13;7.82;;;3.10;;
49217;SDS011;35045;51.194;7.268;2022-10-26T17:17:40;9.25;;;3.60;;
49217;SDS011;35045;51.194;7.268;2022-10-26T17:20:06;11.77;;;3.30;;